sensor_id;sensor_type;location;lat;lon;timestamp;P1;durP1;ratioP1;P2;durP2;ratioP2
37077;SDS011;22989;55.998;37.212;2022-08-04T00:00:09;16.30;;;8.65;;
37077;SDS011;22989;55.998;37.212;2022-08-04T00:05:11;23.17;;;10.07;;
37077;SDS011;22989;55.998;37.212;2022-08-04T00:07:48;17.73;;;9.20;;
37077;SDS011;22989;55.998;37.212;2022-08-04T00:10:17;20.50;;;8.90;;
37077;SDS011;22989;55.998;37.212;2022-08-04T00:12:46;19.02;;;8.30;;
37077;SDS011;22989;55.998;37.212;2022-08-04T00:15:15;16.55;;;8.35;;
37077;SDS011;22989;55.998;37.212;2022-08-04T00:17:44;14.63;;;8.48;;
37077;SDS011;22989;55.998;37.212;2022-08-04T00:20:15;18.15;;;8.30;;
37077;SDS011;22989;55.998;37.212;2022-08-04T00:22:43;12.63;;;8.25;;
37077;SDS011;22989;55.998;37.212;2022-08-04T00:25:11;13.70;;;8.52;;
37077;SDS011;22989;55.998;37.212;2022-08-04T00:27:37;15.13;;;8.45;;
37077;SDS011;22989;55.998;37.212;2022-08-04T00:30:04;20.20;;;8.65;;
37077;SDS011;22989;55.998;37.212;2022-08-04T00:32:31;18.15;;;8.60;;
37077;SDS011;22989;55.998;37.212;2022-08-04T00:34:57;13.25;;;8.75;;
37077;SDS011;22989;55.998;37.212;2022-08-04T00:37:24;17.92;;;8.18;;
37077;SDS011;22989;55.998;37.212;2022-08-04T00:39:53;14.65;;;8.70;;
37077;SDS011;22989;55.998;37.212;2022-08-04T01:01:49;18.60;;;8.20;;
37077;SDS011;22989;55.998;37.212;2022-08-04T01:10:12;15.20;;;9.02;;
37077;SDS011;22989;55.998;37.212;2022-08-04T01:15:48;21.63;;;8.70;;
37077;SDS011;22989;55.998;37.212;2022-08-04T01:18:29;21.48;;;9.25;;
37077;SDS011;22989;55.998;37.212;2022-08-04T01:29:15;15.45;;;8.70;;
37077;SDS011;22989;55.998;37.212;2022-08-04T01:32:06;12.90;;;8.30;;
37077;SDS011;22989;55.998;37.212;2022-08-04T01:34:36;18.45;;;9.65;;
37077;SDS011;22989;55.998;37.212;2022-08-04T01:40:19;18.52;;;8.75;;
37077;SDS011;22989;55.998;37.212;2022-08-04T01:42:47;15.85;;;8.95;;
37077;SDS011;22989;55.998;37.212;2022-08-04T01:45:16;17.15;;;9.05;;
37077;SDS011;22989;55.998;37.212;2022-08-04T01:47:47;14.65;;;8.77;;
37077;SDS011;22989;55.998;37.212;2022-08-04T01:50:14;17.42;;;9.45;;
37077;SDS011;22989;55.998;37.212;2022-08-04T01:52:40;15.05;;;9.05;;
37077;SDS011;22989;55.998;37.212;2022-08-04T01:55:11;11.57;;;8.80;;
37077;SDS011;22989;55.998;37.212;2022-08-04T02:00:09;18.50;;;9.35;;
37077;SDS011;22989;55.998;37.212;2022-08-04T02:02:40;19.57;;;8.77;;
37077;SDS011;22989;55.998;37.212;2022-08-04T02:05:10;16.25;;;9.00;;
37077;SDS011;22989;55.998;37.212;2022-08-04T02:10:26;28.05;;;9.98;;
37077;SDS011;22989;55.998;37.212;2022-08-04T02:21:17;17.17;;;9.02;;
37077;SDS011;22989;55.998;37.212;2022-08-04T02:23:45;14.50;;;9.02;;
37077;SDS011;22989;55.998;37.212;2022-08-04T02:26:20;19.65;;;10.10;;
37077;SDS011;22989;55.998;37.212;2022-08-04T02:36:41;20.52;;;11.80;;
37077;SDS011;22989;55.998;37.212;2022-08-04T02:39:08;14.25;;;10.48;;
37077;SDS011;22989;55.998;37.212;2022-08-04T02:41:35;18.35;;;11.48;;
37077;SDS011;22989;55.998;37.212;2022-08-04T02:44:04;15.65;;;11.35;;
37077;SDS011;22989;55.998;37.212;2022-08-04T02:46:35;17.52;;;11.10;;
37077;SDS011;22989;55.998;37.212;2022-08-04T02:49:03;16.70;;;11.68;;
37077;SDS011;22989;55.998;37.212;2022-08-04T02:51:34;17.73;;;10.82;;
37077;SDS011;22989;55.998;37.212;2022-08-04T02:54:02;15.98;;;11.32;;
37077;SDS011;22989;55.998;37.212;2022-08-04T02:56:29;14.57;;;10.13;;
37077;SDS011;22989;55.998;37.212;2022-08-04T02:58:58;13.68;;;9.85;;
37077;SDS011;22989;55.998;37.212;2022-08-04T03:01:26;14.75;;;11.10;;
37077;SDS011;22989;55.998;37.212;2022-08-04T03:09:08;28.25;;;10.32;;
37077;SDS011;22989;55.998;37.212;2022-08-04T03:18:18;18.88;;;11.65;;
37077;SDS011;22989;55.998;37.212;2022-08-04T03:21:11;16.23;;;11.20;;
37077;SDS011;22989;55.998;37.212;2022-08-04T03:57:59;14.35;;;8.73;;
37077;SDS011;22989;55.998;37.212;2022-08-04T04:21:29;17.08;;;8.23;;
37077;SDS011;22989;55.998;37.212;2022-08-04T04:24:29;18.58;;;8.77;;
37077;SDS011;22989;55.998;37.212;2022-08-04T04:36:07;18.05;;;8.65;;
37077;SDS011;22989;55.998;37.212;2022-08-04T04:41:35;14.73;;;7.60;;
37077;SDS011;22989;55.998;37.212;2022-08-04T04:44:26;15.93;;;7.63;;
37077;SDS011;22989;55.998;37.212;2022-08-04T04:47:17;15.95;;;8.02;;
37077;SDS011;22989;55.998;37.212;2022-08-04T04:55:55;11.52;;;7.20;;
37077;SDS011;22989;55.998;37.212;2022-08-04T04:58:27;13.27;;;6.95;;
37077;SDS011;22989;55.998;37.212;2022-08-04T05:12:13;11.05;;;7.25;;
37077;SDS011;22989;55.998;37.212;2022-08-04T05:14:49;10.65;;;7.22;;
37077;SDS011;22989;55.998;37.212;2022-08-04T05:25:24;11.90;;;6.43;;
37077;SDS011;22989;55.998;37.212;2022-08-04T05:27:56;11.50;;;5.88;;
37077;SDS011;22989;55.998;37.212;2022-08-04T05:30:29;9.55;;;5.18;;
37077;SDS011;22989;55.998;37.212;2022-08-04T05:33:02;11.07;;;5.70;;
37077;SDS011;22989;55.998;37.212;2022-08-04T05:35:35;12.43;;;5.68;;
37077;SDS011;22989;55.998;37.212;2022-08-04T05:38:07;7.88;;;5.57;;
37077;SDS011;22989;55.998;37.212;2022-08-04T05:40:37;10.43;;;5.50;;
37077;SDS011;22989;55.998;37.212;2022-08-04T05:43:04;10.80;;;5.65;;
37077;SDS011;22989;55.998;37.212;2022-08-04T05:45:32;9.32;;;5.05;;
37077;SDS011;22989;55.998;37.212;2022-08-04T05:48:02;10.48;;;4.60;;
37077;SDS011;22989;55.998;37.212;2022-08-04T05:50:31;9.20;;;4.45;;
37077;SDS011;22989;55.998;37.212;2022-08-04T05:52:58;7.95;;;4.80;;
37077;SDS011;22989;55.998;37.212;2022-08-04T05:55:25;7.15;;;3.97;;
37077;SDS011;22989;55.998;37.212;2022-08-04T05:57:53;7.05;;;4.10;;
37077;SDS011;22989;55.998;37.212;2022-08-04T06:00:21;10.85;;;4.47;;
37077;SDS011;22989;55.998;37.212;2022-08-04T06:02:51;8.90;;;4.63;;
37077;SDS011;22989;55.998;37.212;2022-08-04T06:05:18;7.28;;;4.30;;
37077;SDS011;22989;55.998;37.212;2022-08-04T06:07:44;10.07;;;4.32;;
37077;SDS011;22989;55.998;37.212;2022-08-04T06:10:12;9.73;;;3.80;;
37077;SDS011;22989;55.998;37.212;2022-08-04T06:15:10;10.05;;;3.97;;
37077;SDS011;22989;55.998;37.212;2022-08-04T06:17:44;7.60;;;3.67;;
37077;SDS011;22989;55.998;37.212;2022-08-04T06:20:13;6.80;;;3.50;;
37077;SDS011;22989;55.998;37.212;2022-08-04T06:22:42;7.97;;;3.50;;
37077;SDS011;22989;55.998;37.212;2022-08-04T06:25:14;7.10;;;3.40;;
37077;SDS011;22989;55.998;37.212;2022-08-04T06:27:44;5.78;;;3.30;;
37077;SDS011;22989;55.998;37.212;2022-08-04T06:30:12;5.90;;;3.17;;
37077;SDS011;22989;55.998;37.212;2022-08-04T06:32:42;9.52;;;3.63;;
37077;SDS011;22989;55.998;37.212;2022-08-04T06:35:13;5.50;;;3.15;;
37077;SDS011;22989;55.998;37.212;2022-08-04T06:37:41;5.25;;;2.92;;
37077;SDS011;22989;55.998;37.212;2022-08-04T06:40:10;4.95;;;3.05;;
37077;SDS011;22989;55.998;37.212;2022-08-04T06:42:38;4.57;;;3.10;;
37077;SDS011;22989;55.998;37.212;2022-08-04T06:45:04;6.28;;;3.15;;
37077;SDS011;22989;55.998;37.212;2022-08-04T06:47:32;3.60;;;2.90;;
37077;SDS011;22989;55.998;37.212;2022-08-04T06:49:59;4.25;;;2.90;;
37077;SDS011;22989;55.998;37.212;2022-08-04T06:52:26;3.97;;;2.38;;
37077;SDS011;22989;55.998;37.212;2022-08-04T06:54:52;3.88;;;2.83;;
37077;SDS011;22989;55.998;37.212;2022-08-04T06:57:22;4.88;;;2.83;;
37077;SDS011;22989;55.998;37.212;2022-08-04T07:00:03;10.27;;;2.88;;
37077;SDS011;22989;55.998;37.212;2022-08-04T07:02:30;5.15;;;2.47;;
37077;SDS011;22989;55.998;37.212;2022-08-04T07:05:04;6.55;;;2.65;;
37077;SDS011;22989;55.998;37.212;2022-08-04T07:07:31;4.55;;;2.65;;
37077;SDS011;22989;55.998;37.212;2022-08-04T07:09:58;5.85;;;2.67;;
37077;SDS011;22989;55.998;37.212;2022-08-04T07:12:25;4.00;;;2.70;;
37077;SDS011;22989;55.998;37.212;2022-08-04T07:14:52;4.03;;;2.92;;
37077;SDS011;22989;55.998;37.212;2022-08-04T07:17:19;3.25;;;2.70;;
37077;SDS011;22989;55.998;37.212;2022-08-04T07:19:46;5.13;;;2.90;;
37077;SDS011;22989;55.998;37.212;2022-08-04T07:22:11;3.70;;;2.63;;
37077;SDS011;22989;55.998;37.212;2022-08-04T07:24:40;4.13;;;2.90;;
37077;SDS011;22989;55.998;37.212;2022-08-04T07:27:06;4.75;;;2.80;;
37077;SDS011;22989;55.998;37.212;2022-08-04T07:29:35;5.90;;;2.92;;
37077;SDS011;22989;55.998;37.212;2022-08-04T07:32:02;4.28;;;2.72;;
37077;SDS011;22989;55.998;37.212;2022-08-04T07:34:29;6.28;;;3.00;;
37077;SDS011;22989;55.998;37.212;2022-08-04T07:36:57;7.30;;;2.80;;
37077;SDS011;22989;55.998;37.212;2022-08-04T07:39:25;6.85;;;2.80;;
37077;SDS011;22989;55.998;37.212;2022-08-04T07:41:53;6.15;;;2.80;;
37077;SDS011;22989;55.998;37.212;2022-08-04T07:44:20;5.90;;;2.97;;
37077;SDS011;22989;55.998;37.212;2022-08-04T07:46:46;5.40;;;2.75;;
37077;SDS011;22989;55.998;37.212;2022-08-04T07:49:12;4.38;;;2.60;;
37077;SDS011;22989;55.998;37.212;2022-08-04T07:51:39;7.35;;;2.53;;
37077;SDS011;22989;55.998;37.212;2022-08-04T07:54:05;4.70;;;2.67;;
37077;SDS011;22989;55.998;37.212;2022-08-04T07:56:35;4.68;;;2.30;;
37077;SDS011;22989;55.998;37.212;2022-08-04T07:59:02;3.47;;;2.70;;
37077;SDS011;22989;55.998;37.212;2022-08-04T08:01:29;3.08;;;2.60;;
37077;SDS011;22989;55.998;37.212;2022-08-04T08:03:55;4.70;;;2.80;;
37077;SDS011;22989;55.998;37.212;2022-08-04T08:06:23;7.63;;;2.58;;
37077;SDS011;22989;55.998;37.212;2022-08-04T08:08:49;3.40;;;2.83;;
37077;SDS011;22989;55.998;37.212;2022-08-04T08:11:16;3.90;;;2.30;;
37077;SDS011;22989;55.998;37.212;2022-08-04T08:13:43;2.90;;;2.60;;
37077;SDS011;22989;55.998;37.212;2022-08-04T08:16:10;5.90;;;2.78;;
37077;SDS011;22989;55.998;37.212;2022-08-04T08:18:36;4.85;;;2.90;;
37077;SDS011;22989;55.998;37.212;2022-08-04T08:21:02;3.38;;;3.08;;
37077;SDS011;22989;55.998;37.212;2022-08-04T08:23:29;3.05;;;2.75;;
37077;SDS011;22989;55.998;37.212;2022-08-04T08:25:57;6.22;;;3.10;;
37077;SDS011;22989;55.998;37.212;2022-08-04T08:28:23;3.38;;;3.00;;
37077;SDS011;22989;55.998;37.212;2022-08-04T08:30:49;4.20;;;3.30;;
37077;SDS011;22989;55.998;37.212;2022-08-04T08:33:15;4.13;;;3.42;;
37077;SDS011;22989;55.998;37.212;2022-08-04T08:38:07;3.78;;;3.42;;
37077;SDS011;22989;55.998;37.212;2022-08-04T08:40:46;4.82;;;3.53;;
37077;SDS011;22989;55.998;37.212;2022-08-04T08:53:52;6.45;;;3.40;;
37077;SDS011;22989;55.998;37.212;2022-08-04T09:10:25;8.75;;;3.70;;
37077;SDS011;22989;55.998;37.212;2022-08-04T09:13:18;8.13;;;3.40;;
37077;SDS011;22989;55.998;37.212;2022-08-04T09:18:59;3.63;;;3.30;;
37077;SDS011;22989;55.998;37.212;2022-08-04T09:21:32;6.47;;;3.55;;
37077;SDS011;22989;55.998;37.212;2022-08-04T09:24:21;4.90;;;3.53;;
37077;SDS011;22989;55.998;37.212;2022-08-04T09:27:37;3.97;;;3.63;;
37077;SDS011;22989;55.998;37.212;2022-08-04T09:35:15;5.68;;;3.78;;
37077;SDS011;22989;55.998;37.212;2022-08-04T09:40:58;5.93;;;3.92;;
37077;SDS011;22989;55.998;37.212;2022-08-04T09:48:55;8.20;;;3.70;;
37077;SDS011;22989;55.998;37.212;2022-08-04T09:59:54;6.63;;;3.70;;
37077;SDS011;22989;55.998;37.212;2022-08-04T10:02:25;4.57;;;3.70;;
37077;SDS011;22989;55.998;37.212;2022-08-04T10:04:58;4.68;;;3.90;;
37077;SDS011;22989;55.998;37.212;2022-08-04T10:13:07;7.10;;;4.00;;
37077;SDS011;22989;55.998;37.212;2022-08-04T10:30:03;4.45;;;3.95;;
37077;SDS011;22989;55.998;37.212;2022-08-04T10:35:53;6.38;;;4.13;;
37077;SDS011;22989;55.998;37.212;2022-08-04T10:38:28;4.95;;;4.28;;
37077;SDS011;22989;55.998;37.212;2022-08-04T10:41:00;9.70;;;4.18;;
37077;SDS011;22989;55.998;37.212;2022-08-04T10:43:45;7.47;;;4.50;;
37077;SDS011;22989;55.998;37.212;2022-08-04T10:56:57;7.78;;;4.10;;
37077;SDS011;22989;55.998;37.212;2022-08-04T11:00:04;7.00;;;4.07;;
37077;SDS011;22989;55.998;37.212;2022-08-04T11:05:34;4.75;;;4.13;;
37077;SDS011;22989;55.998;37.212;2022-08-04T11:08:16;8.63;;;4.20;;
37077;SDS011;22989;55.998;37.212;2022-08-04T11:13:46;6.53;;;4.03;;
37077;SDS011;22989;55.998;37.212;2022-08-04T11:16:25;7.72;;;4.20;;
37077;SDS011;22989;55.998;37.212;2022-08-04T11:21:38;6.60;;;4.60;;
37077;SDS011;22989;55.998;37.212;2022-08-04T11:24:34;4.95;;;4.18;;
37077;SDS011;22989;55.998;37.212;2022-08-04T11:27:21;5.68;;;4.20;;
37077;SDS011;22989;55.998;37.212;2022-08-04T11:30:06;8.27;;;4.22;;
37077;SDS011;22989;55.998;37.212;2022-08-04T11:40:57;6.65;;;4.50;;
37077;SDS011;22989;55.998;37.212;2022-08-04T11:43:35;8.75;;;4.38;;
37077;SDS011;22989;55.998;37.212;2022-08-04T11:46:22;6.05;;;4.55;;
37077;SDS011;22989;55.998;37.212;2022-08-04T11:48:57;9.63;;;4.70;;
37077;SDS011;22989;55.998;37.212;2022-08-04T11:51:29;6.68;;;4.80;;
37077;SDS011;22989;55.998;37.212;2022-08-04T11:53:57;10.20;;;5.00;;
37077;SDS011;22989;55.998;37.212;2022-08-04T11:56:25;7.68;;;4.60;;
37077;SDS011;22989;55.998;37.212;2022-08-04T11:58:51;7.25;;;4.45;;
37077;SDS011;22989;55.998;37.212;2022-08-04T12:01:44;6.80;;;4.70;;
37077;SDS011;22989;55.998;37.212;2022-08-04T12:06:55;5.32;;;4.40;;
37077;SDS011;22989;55.998;37.212;2022-08-04T12:09:25;7.45;;;4.30;;
37077;SDS011;22989;55.998;37.212;2022-08-04T12:12:15;9.10;;;5.35;;
37077;SDS011;22989;55.998;37.212;2022-08-04T12:17:47;7.78;;;5.10;;
37077;SDS011;22989;55.998;37.212;2022-08-04T12:20:26;6.28;;;4.80;;
37077;SDS011;22989;55.998;37.212;2022-08-04T12:22:55;8.20;;;4.70;;
37077;SDS011;22989;55.998;37.212;2022-08-04T12:25:23;6.80;;;5.43;;
37077;SDS011;22989;55.998;37.212;2022-08-04T12:27:56;8.98;;;4.90;;
37077;SDS011;22989;55.998;37.212;2022-08-04T12:30:31;8.63;;;5.00;;
37077;SDS011;22989;55.998;37.212;2022-08-04T12:35:38;9.23;;;5.18;;
37077;SDS011;22989;55.998;37.212;2022-08-04T12:38:13;7.87;;;5.37;;
37077;SDS011;22989;55.998;37.212;2022-08-04T12:40:46;8.95;;;5.15;;
37077;SDS011;22989;55.998;37.212;2022-08-04T12:45:48;7.50;;;4.97;;
37077;SDS011;22989;55.998;37.212;2022-08-04T12:48:16;7.53;;;5.13;;
37077;SDS011;22989;55.998;37.212;2022-08-04T12:50:50;9.10;;;5.50;;
37077;SDS011;22989;55.998;37.212;2022-08-04T12:53:18;5.50;;;5.00;;
37077;SDS011;22989;55.998;37.212;2022-08-04T12:55:48;10.98;;;5.53;;
37077;SDS011;22989;55.998;37.212;2022-08-04T12:58:20;8.55;;;4.70;;
37077;SDS011;22989;55.998;37.212;2022-08-04T13:00:52;9.05;;;5.40;;
37077;SDS011;22989;55.998;37.212;2022-08-04T13:03:21;7.30;;;4.70;;
37077;SDS011;22989;55.998;37.212;2022-08-04T13:05:52;10.48;;;5.70;;
37077;SDS011;22989;55.998;37.212;2022-08-04T13:08:19;12.90;;;5.90;;
37077;SDS011;22989;55.998;37.212;2022-08-04T13:10:47;9.95;;;5.72;;
37077;SDS011;22989;55.998;37.212;2022-08-04T13:13:18;10.45;;;5.75;;
37077;SDS011;22989;55.998;37.212;2022-08-04T13:16:02;8.05;;;5.13;;
37077;SDS011;22989;55.998;37.212;2022-08-04T13:18:33;8.57;;;5.47;;
37077;SDS011;22989;55.998;37.212;2022-08-04T13:21:17;7.07;;;5.60;;
37077;SDS011;22989;55.998;37.212;2022-08-04T13:23:45;12.40;;;5.65;;
37077;SDS011;22989;55.998;37.212;2022-08-04T13:26:14;11.57;;;5.65;;
37077;SDS011;22989;55.998;37.212;2022-08-04T13:28:42;12.43;;;5.55;;
37077;SDS011;22989;55.998;37.212;2022-08-04T13:31:17;8.52;;;5.78;;
37077;SDS011;22989;55.998;37.212;2022-08-04T13:33:46;10.15;;;5.90;;
37077;SDS011;22989;55.998;37.212;2022-08-04T13:36:14;9.90;;;6.40;;
37077;SDS011;22989;55.998;37.212;2022-08-04T13:38:48;8.20;;;5.47;;
37077;SDS011;22989;55.998;37.212;2022-08-04T13:41:17;11.20;;;6.20;;
37077;SDS011;22989;55.998;37.212;2022-08-04T13:43:46;11.73;;;6.30;;
37077;SDS011;22989;55.998;37.212;2022-08-04T13:46:16;8.25;;;5.72;;
37077;SDS011;22989;55.998;37.212;2022-08-04T13:48:48;11.65;;;6.05;;
37077;SDS011;22989;55.998;37.212;2022-08-04T13:51:16;9.70;;;5.78;;
37077;SDS011;22989;55.998;37.212;2022-08-04T13:53:44;7.10;;;5.88;;
37077;SDS011;22989;55.998;37.212;2022-08-04T13:56:20;8.73;;;6.43;;
37077;SDS011;22989;55.998;37.212;2022-08-04T13:58:47;11.35;;;5.72;;
37077;SDS011;22989;55.998;37.212;2022-08-04T14:01:19;6.15;;;5.63;;
37077;SDS011;22989;55.998;37.212;2022-08-04T14:06:19;7.07;;;5.40;;
37077;SDS011;22989;55.998;37.212;2022-08-04T14:09:09;7.22;;;5.90;;
37077;SDS011;22989;55.998;37.212;2022-08-04T14:11:43;6.00;;;5.43;;
37077;SDS011;22989;55.998;37.212;2022-08-04T14:17:00;7.32;;;5.75;;
37077;SDS011;22989;55.998;37.212;2022-08-04T14:27:29;7.80;;;6.03;;
37077;SDS011;22989;55.998;37.212;2022-08-04T14:30:06;9.88;;;6.18;;
37077;SDS011;22989;55.998;37.212;2022-08-04T14:35:29;7.35;;;5.38;;
37077;SDS011;22989;55.998;37.212;2022-08-04T14:38:01;7.50;;;6.30;;
37077;SDS011;22989;55.998;37.212;2022-08-04T14:40:29;11.52;;;5.75;;
37077;SDS011;22989;55.998;37.212;2022-08-04T14:42:56;8.45;;;6.13;;
37077;SDS011;22989;55.998;37.212;2022-08-04T14:45:39;10.10;;;6.15;;
37077;SDS011;22989;55.998;37.212;2022-08-04T14:48:09;8.13;;;6.15;;
37077;SDS011;22989;55.998;37.212;2022-08-04T14:53:10;7.25;;;6.07;;
37077;SDS011;22989;55.998;37.212;2022-08-04T14:55:50;10.00;;;5.88;;
37077;SDS011;22989;55.998;37.212;2022-08-04T14:58:20;11.45;;;5.70;;
37077;SDS011;22989;55.998;37.212;2022-08-04T15:00:47;7.80;;;5.88;;
37077;SDS011;22989;55.998;37.212;2022-08-04T15:03:14;7.75;;;5.93;;
37077;SDS011;22989;55.998;37.212;2022-08-04T15:05:40;7.93;;;6.03;;
37077;SDS011;22989;55.998;37.212;2022-08-04T15:08:07;9.73;;;6.00;;
37077;SDS011;22989;55.998;37.212;2022-08-04T15:10:34;7.88;;;5.50;;
37077;SDS011;22989;55.998;37.212;2022-08-04T15:13:00;8.32;;;5.82;;
37077;SDS011;22989;55.998;37.212;2022-08-04T15:15:27;7.85;;;6.40;;
37077;SDS011;22989;55.998;37.212;2022-08-04T15:17:54;10.40;;;6.05;;
37077;SDS011;22989;55.998;37.212;2022-08-04T15:20:20;10.43;;;6.20;;
37077;SDS011;22989;55.998;37.212;2022-08-04T15:22:46;7.63;;;5.78;;
37077;SDS011;22989;55.998;37.212;2022-08-04T15:25:13;9.10;;;6.28;;
37077;SDS011;22989;55.998;37.212;2022-08-04T15:27:41;9.57;;;6.53;;
37077;SDS011;22989;55.998;37.212;2022-08-04T15:30:10;9.07;;;6.13;;
37077;SDS011;22989;55.998;37.212;2022-08-04T15:32:38;9.13;;;6.05;;
37077;SDS011;22989;55.998;37.212;2022-08-04T15:35:11;10.80;;;5.55;;
37077;SDS011;22989;55.998;37.212;2022-08-04T15:37:58;8.90;;;5.70;;
37077;SDS011;22989;55.998;37.212;2022-08-04T15:49:17;9.70;;;4.93;;
37077;SDS011;22989;55.998;37.212;2022-08-04T15:52:05;8.50;;;4.90;;
37077;SDS011;22989;55.998;37.212;2022-08-04T15:54:34;8.38;;;4.90;;
37077;SDS011;22989;55.998;37.212;2022-08-04T15:57:03;11.65;;;4.80;;
37077;SDS011;22989;55.998;37.212;2022-08-04T16:02:39;7.57;;;4.68;;
37077;SDS011;22989;55.998;37.212;2022-08-04T16:15:50;8.15;;;4.75;;
37077;SDS011;22989;55.998;37.212;2022-08-04T16:18:19;8.43;;;4.50;;
37077;SDS011;22989;55.998;37.212;2022-08-04T16:20:50;8.13;;;4.88;;
37077;SDS011;22989;55.998;37.212;2022-08-04T16:23:33;9.25;;;4.57;;
37077;SDS011;22989;55.998;37.212;2022-08-04T16:26:13;8.48;;;4.93;;
37077;SDS011;22989;55.998;37.212;2022-08-04T16:28:41;9.10;;;4.60;;
37077;SDS011;22989;55.998;37.212;2022-08-04T16:31:11;5.75;;;4.90;;
37077;SDS011;22989;55.998;37.212;2022-08-04T16:33:38;7.40;;;4.80;;
37077;SDS011;22989;55.998;37.212;2022-08-04T16:36:05;5.65;;;4.95;;
37077;SDS011;22989;55.998;37.212;2022-08-04T16:39:15;7.45;;;4.82;;
37077;SDS011;22989;55.998;37.212;2022-08-04T16:41:41;7.43;;;4.80;;
37077;SDS011;22989;55.998;37.212;2022-08-04T16:44:27;7.10;;;4.63;;
37077;SDS011;22989;55.998;37.212;2022-08-04T16:47:06;11.40;;;5.03;;
37077;SDS011;22989;55.998;37.212;2022-08-04T16:49:32;6.93;;;5.00;;
37077;SDS011;22989;55.998;37.212;2022-08-04T16:52:05;5.30;;;4.63;;
37077;SDS011;22989;55.998;37.212;2022-08-04T16:54:33;7.20;;;5.00;;
37077;SDS011;22989;55.998;37.212;2022-08-04T16:57:06;8.13;;;5.15;;
37077;SDS011;22989;55.998;37.212;2022-08-04T16:59:33;12.43;;;5.70;;
37077;SDS011;22989;55.998;37.212;2022-08-04T17:01:59;7.18;;;5.30;;
37077;SDS011;22989;55.998;37.212;2022-08-04T17:04:30;11.13;;;5.18;;
37077;SDS011;22989;55.998;37.212;2022-08-04T17:07:04;7.57;;;5.35;;
37077;SDS011;22989;55.998;37.212;2022-08-04T17:09:30;11.05;;;5.32;;
37077;SDS011;22989;55.998;37.212;2022-08-04T17:11:57;8.35;;;5.32;;
37077;SDS011;22989;55.998;37.212;2022-08-04T17:14:27;7.68;;;4.90;;
37077;SDS011;22989;55.998;37.212;2022-08-04T17:16:55;6.70;;;5.40;;
37077;SDS011;22989;55.998;37.212;2022-08-04T17:19:22;10.43;;;5.45;;
37077;SDS011;22989;55.998;37.212;2022-08-04T17:21:49;8.35;;;5.47;;
37077;SDS011;22989;55.998;37.212;2022-08-04T17:24:16;5.90;;;5.30;;
37077;SDS011;22989;55.998;37.212;2022-08-04T17:26:42;10.45;;;5.82;;
37077;SDS011;22989;55.998;37.212;2022-08-04T17:29:09;7.72;;;5.30;;
37077;SDS011;22989;55.998;37.212;2022-08-04T17:31:36;6.80;;;5.53;;
37077;SDS011;22989;55.998;37.212;2022-08-04T17:34:12;10.75;;;5.80;;
37077;SDS011;22989;55.998;37.212;2022-08-04T17:36:39;5.72;;;5.13;;
37077;SDS011;22989;55.998;37.212;2022-08-04T17:39:12;12.60;;;5.75;;
37077;SDS011;22989;55.998;37.212;2022-08-04T17:41:40;7.20;;;5.30;;
37077;SDS011;22989;55.998;37.212;2022-08-04T17:44:06;10.75;;;5.55;;
37077;SDS011;22989;55.998;37.212;2022-08-04T17:49:03;9.10;;;5.68;;
37077;SDS011;22989;55.998;37.212;2022-08-04T17:51:33;6.43;;;5.55;;
37077;SDS011;22989;55.998;37.212;2022-08-04T17:54:02;6.72;;;5.50;;
37077;SDS011;22989;55.998;37.212;2022-08-04T17:56:32;11.93;;;5.22;;
37077;SDS011;22989;55.998;37.212;2022-08-04T17:59:05;9.15;;;5.55;;
37077;SDS011;22989;55.998;37.212;2022-08-04T18:04:38;11.27;;;5.88;;
37077;SDS011;22989;55.998;37.212;2022-08-04T18:08:00;9.77;;;5.90;;
37077;SDS011;22989;55.998;37.212;2022-08-04T18:10:04;11.23;;;5.70;;
37077;SDS011;22989;55.998;37.212;2022-08-04T18:12:31;8.15;;;5.95;;
37077;SDS011;22989;55.998;37.212;2022-08-04T18:15:03;12.13;;;7.30;;
37077;SDS011;22989;55.998;37.212;2022-08-04T18:17:37;13.57;;;6.00;;
37077;SDS011;22989;55.998;37.212;2022-08-04T18:20:08;14.63;;;6.20;;
37077;SDS011;22989;55.998;37.212;2022-08-04T18:22:38;14.20;;;5.75;;
37077;SDS011;22989;55.998;37.212;2022-08-04T18:25:07;8.50;;;6.25;;
37077;SDS011;22989;55.998;37.212;2022-08-04T18:27:44;10.50;;;6.55;;
37077;SDS011;22989;55.998;37.212;2022-08-04T18:30:18;9.38;;;6.15;;
37077;SDS011;22989;55.998;37.212;2022-08-04T18:32:48;10.88;;;6.45;;
37077;SDS011;22989;55.998;37.212;2022-08-04T18:35:14;8.90;;;6.35;;
37077;SDS011;22989;55.998;37.212;2022-08-04T18:37:41;11.38;;;6.57;;
37077;SDS011;22989;55.998;37.212;2022-08-04T18:40:07;8.95;;;6.95;;
37077;SDS011;22989;55.998;37.212;2022-08-04T18:42:34;6.78;;;6.07;;
37077;SDS011;22989;55.998;37.212;2022-08-04T18:45:01;11.80;;;6.47;;
37077;SDS011;22989;55.998;37.212;2022-08-04T18:47:28;6.07;;;5.47;;
37077;SDS011;22989;55.998;37.212;2022-08-04T18:49:54;11.32;;;6.38;;
37077;SDS011;22989;55.998;37.212;2022-08-04T18:52:20;13.02;;;6.00;;
37077;SDS011;22989;55.998;37.212;2022-08-04T18:54:47;8.73;;;6.00;;
37077;SDS011;22989;55.998;37.212;2022-08-04T18:57:19;7.47;;;6.32;;
37077;SDS011;22989;55.998;37.212;2022-08-04T18:59:49;10.63;;;6.07;;
37077;SDS011;22989;55.998;37.212;2022-08-04T19:02:16;9.50;;;6.38;;
37077;SDS011;22989;55.998;37.212;2022-08-04T19:04:42;8.57;;;6.38;;
37077;SDS011;22989;55.998;37.212;2022-08-04T19:07:08;12.35;;;6.63;;
37077;SDS011;22989;55.998;37.212;2022-08-04T19:09:39;10.68;;;6.57;;
37077;SDS011;22989;55.998;37.212;2022-08-04T19:12:08;8.13;;;6.35;;
37077;SDS011;22989;55.998;37.212;2022-08-04T19:14:34;10.35;;;6.53;;
37077;SDS011;22989;55.998;37.212;2022-08-04T19:17:00;9.90;;;6.28;;
37077;SDS011;22989;55.998;37.212;2022-08-04T19:19:26;11.73;;;6.63;;
37077;SDS011;22989;55.998;37.212;2022-08-04T19:21:51;9.57;;;6.40;;
37077;SDS011;22989;55.998;37.212;2022-08-04T19:24:17;9.38;;;6.80;;
37077;SDS011;22989;55.998;37.212;2022-08-04T19:26:43;13.02;;;6.63;;
37077;SDS011;22989;55.998;37.212;2022-08-04T19:29:09;10.55;;;6.80;;
37077;SDS011;22989;55.998;37.212;2022-08-04T19:31:35;10.13;;;6.68;;
37077;SDS011;22989;55.998;37.212;2022-08-04T19:34:01;9.75;;;7.20;;
37077;SDS011;22989;55.998;37.212;2022-08-04T19:36:28;14.77;;;6.90;;
37077;SDS011;22989;55.998;37.212;2022-08-04T19:38:57;10.73;;;6.65;;
37077;SDS011;22989;55.998;37.212;2022-08-04T19:41:25;14.38;;;7.53;;
37077;SDS011;22989;55.998;37.212;2022-08-04T19:43:53;9.07;;;7.35;;
37077;SDS011;22989;55.998;37.212;2022-08-04T19:46:19;10.65;;;7.55;;
37077;SDS011;22989;55.998;37.212;2022-08-04T19:48:45;9.65;;;7.07;;
37077;SDS011;22989;55.998;37.212;2022-08-04T19:51:11;11.90;;;7.68;;
37077;SDS011;22989;55.998;37.212;2022-08-04T19:53:37;10.95;;;7.40;;
37077;SDS011;22989;55.998;37.212;2022-08-04T19:56:03;10.90;;;7.32;;
37077;SDS011;22989;55.998;37.212;2022-08-04T19:58:29;17.27;;;7.78;;
37077;SDS011;22989;55.998;37.212;2022-08-04T20:00:54;10.57;;;7.10;;
37077;SDS011;22989;55.998;37.212;2022-08-04T20:03:20;11.43;;;7.50;;
37077;SDS011;22989;55.998;37.212;2022-08-04T20:05:46;9.88;;;7.25;;
37077;SDS011;22989;55.998;37.212;2022-08-04T20:08:13;13.23;;;7.07;;
37077;SDS011;22989;55.998;37.212;2022-08-04T20:10:39;9.55;;;7.32;;
37077;SDS011;22989;55.998;37.212;2022-08-04T20:13:05;10.50;;;6.88;;
37077;SDS011;22989;55.998;37.212;2022-08-04T20:15:31;11.10;;;7.35;;
37077;SDS011;22989;55.998;37.212;2022-08-04T20:17:57;10.35;;;7.80;;
37077;SDS011;22989;55.998;37.212;2022-08-04T20:20:23;9.70;;;7.78;;